Latest Weather Observations for Koolan Island / Koolan Central

IDW60801

Issued at 9:33 am WST Sunday 28 November 2021 (issued every 10 minutes, with the page automatically refreshed every 10 minutes)

About weather observations | Map of weather stations | Latest weather observations for WA | Other Formats
Station Details ID: 503621 Name: KOOLAN ISLAND (KOOLAN CENTRAL AIRPORT) Lat: -16.12 Lon: 123.74 Height: 163.2 m
Data from the previous 72 hours. | See also: Recent months for locations in Western Australia
Date/Time
WST
Temp
°C
App
Temp
°C
Dew
Point
°C
Rel
Hum
%
Delta-T
°C
Wind Press
QNH
hPa
Press
MSL
hPa
Rain since
9am
mm
Dir  Spd
km/h
Gust
km/h
Spd
kts
Gust
kts
28/09:30am 30.1 33.3 24.3 71 4.1 NE 15 19 8 10 1011.2 1010.1 0.0
28/09:00am 29.6 33.1 24.2 72 3.8 ENE 13 19 7 10 1011.3 - 0.0
28/08:30am 30.2 34.4 24.1 70 4.3 ENE 9 15 5 8 1011.3 - 0.0
28/08:00am 29.3 32.7 24.0 73 3.7 ENE 13 17 7 9 1011.3 - 0.0
28/07:30am 29.7 34.5 24.1 72 3.9 E 6 11 3 6 1011.0 - 0.0
28/07:00am 29.2 33.8 24.1 74 3.6 E 7 11 4 6 1011.0 - 0.0
28/06:30am 28.8 33.3 23.7 74 3.5 E 6 7 3 4 1010.8 - 0.0
28/06:00am 28.3 33.0 24.3 79 2.8 ESE 7 11 4 6 1010.6 - 0.0
28/05:30am 27.9 32.3 24.5 82 2.4 SE 9 13 5 7 1010.2 - 0.0
28/05:00am 27.6 32.4 24.4 83 2.2 E 7 9 4 5 1009.8 - 0.0
28/04:30am 27.7 33.0 24.3 82 2.4 ESE 4 6 2 3 1009.1 - 0.0
28/04:00am 27.7 32.5 24.1 81 2.5 N 6 7 3 4 1008.8 - 0.0
28/03:30am 27.8 32.4 24.2 81 2.5 N 7 13 4 7 1008.8 - 0.0
28/03:00am 27.8 32.1 24.2 81 2.5 N 9 13 5 7 1008.6 - 0.0
28/02:30am 27.6 31.2 24.4 83 2.2 N 13 19 7 10 1008.8 - 0.0
28/02:00am 27.8 30.0 24.2 81 2.5 N 20 30 11 16 1008.7 - 0.0
28/01:30am 27.9 29.8 23.7 78 2.9 N 20 32 11 17 1008.5 - 0.0
28/01:09am 28.2 29.9 24.0 78 2.9 N 22 33 12 18 1008.9 - 0.0
28/01:00am 28.3 30.3 24.5 80 2.7 N 22 32 12 17 1008.8 - 0.0
28/12:30am 28.6 33.1 26.4 88 1.6 NNW 15 20 8 11 1009.0 - 0.0
28/12:00am 28.7 32.4 26.3 87 1.7 NNW 19 26 10 14 1009.4 - 0.0
 
Date/Time
WST
Temp
°C
App
Temp
°C
Dew
Point
°C
Rel
Hum
%
Delta-T
°C
Wind Press
QNH
hPa
Press
MSL
hPa
Rain since
9am
mm
Dir  Spd
km/h
Gust
km/h
Spd
kts
Gust
kts
27/11:53pm 28.6 32.1 26.0 86 1.9 NNW 19 26 10 14 1009.4 - 0.0
27/11:30pm 28.5 32.7 25.9 86 1.9 NNW 15 22 8 12 1009.2 - 0.0
27/11:00pm 28.6 31.8 25.6 84 2.1 NW 19 28 10 15 1009.0 - 0.0
27/10:32pm 28.6 32.5 26.6 89 1.4 NW 19 28 10 15 1009.3 - 0.0
27/10:30pm 28.5 32.3 26.5 89 1.4 NW 19 28 10 15 1009.3 - 0.0
27/10:00pm 28.8 33.6 26.8 89 1.4 NNW 15 22 8 12 1009.6 - 0.0
27/09:45pm 28.9 32.6 26.3 86 1.9 NNW 19 24 10 13 1009.5 - 0.0
27/09:30pm 28.8 33.3 26.4 87 1.7 NNW 15 22 8 12 1009.5 - 0.0
27/09:00pm 28.9 35.0 26.5 87 1.7 NNW 7 11 4 6 1009.6 - 0.0
27/08:30pm 29.0 34.3 26.4 86 1.9 NW 11 17 6 9 1009.2 - 0.0
27/08:00pm 29.2 34.9 26.4 85 2.0 NW 9 17 5 9 1008.9 - 0.0
27/07:30pm 29.6 35.6 26.0 81 2.6 W 6 11 3 6 1009.0 - 0.0
27/07:00pm 29.9 34.6 25.0 75 3.5 WNW 9 15 5 8 1008.6 - 0.0
27/06:30pm 30.0 34.8 25.7 78 3.1 W 11 15 6 8 1008.2 - 0.0
27/06:00pm 30.2 35.8 25.7 77 3.2 W 7 15 4 8 1008.0 - 0.0
27/05:30pm 30.3 35.1 25.1 73 3.7 NW 9 13 5 7 1007.7 - 0.0
27/05:00pm 31.1 35.8 25.0 70 4.3 NW 9 13 5 7 1007.3 - 0.0
27/04:30pm 30.9 36.0 25.5 73 3.8 NW 9 13 5 7 1007.0 - 0.0
27/04:00pm 31.3 35.2 25.4 71 4.2 NNW 15 19 8 10 1006.8 - 0.0
27/03:30pm 31.7 34.9 23.0 60 6.0 NW 11 17 6 9 1006.6 - 0.0
27/03:00pm 32.5 36.2 23.2 58 6.5 NNW 9 15 5 8 1006.8 - 0.0
27/02:30pm 32.2 34.1 21.4 53 7.3 NNW 13 17 7 9 1007.0 - 0.0
27/02:00pm 32.1 34.2 21.0 52 7.5 NNW 11 17 6 9 1006.9 - 0.0
27/01:30pm 32.2 35.3 22.9 58 6.4 NNW 11 19 6 10 1007.6 - 0.0
27/01:00pm 32.4 35.3 22.5 56 6.8 NNW 11 17 6 9 1007.8 - 0.0
27/12:30pm 31.2 36.0 25.1 70 4.3 NW 9 13 5 7 1008.2 - 0.0
27/12:00pm 30.9 35.6 25.5 73 3.8 NNW 11 19 6 10 1008.6 - 0.0
27/11:30am 30.2 34.9 26.1 79 2.9 NNE 13 20 7 11 1008.9 - 0.0
27/11:00am 30.2 34.9 26.1 79 2.9 NE 13 20 7 11 1009.2 - 0.0
27/10:30am 30.5 35.9 26.0 77 3.2 NNW 9 17 5 9 1009.6 - 0.0
27/10:00am 30.1 35.6 26.1 79 2.9 NNW 9 15 5 8 1009.8 - 0.0
27/09:30am 29.7 34.6 25.9 80 2.7 NNW 11 17 6 9 1010.0 - 0.0
27/09:00am 29.4 34.3 25.8 81 2.6 NNW 11 17 6 9 1010.1 - 0.0
27/08:30am 29.3 33.7 25.7 81 2.6 NNW 13 17 7 9 1010.0 - 0.0
27/08:00am 29.4 34.1 25.6 80 2.7 NNW 11 15 6 8 1010.0 - 0.0
27/07:30am 29.4 34.0 25.4 79 2.8 NNW 11 17 6 9 1009.8 - 0.0
27/07:00am 28.9 34.0 25.5 82 2.4 NNW 9 15 5 8 1009.5 - 0.0
27/06:30am 28.5 33.6 25.5 84 2.1 NW 9 15 5 8 1009.4 - 0.0
27/06:00am 28.2 32.4 25.4 85 2.0 WNW 13 17 7 9 1009.0 - 0.0
27/05:30am 27.8 33.2 25.4 87 1.7 WSW 7 13 4 7 1008.8 - 0.0
27/05:00am 27.8 32.4 25.4 87 1.7 WSW 11 13 6 7 1008.6 - 0.0
27/04:30am 27.7 31.9 25.3 87 1.7 WSW 13 15 7 8 1008.5 - 0.0
27/04:00am 27.8 32.2 25.6 88 1.6 WSW 13 17 7 9 1008.3 - 0.0
27/03:30am 27.9 33.2 25.9 89 1.4 W 9 13 5 7 1008.2 - 0.0
27/03:00am 28.2 33.0 26.2 89 1.4 WNW 13 19 7 10 1008.0 - 0.0
27/02:37am 28.1 32.8 26.1 89 1.4 WNW 13 19 7 10 1008.2 - 0.0
27/02:30am 28.1 32.9 26.3 90 1.3 NW 13 19 7 10 1008.2 - 0.0
27/02:00am 28.1 33.7 26.3 90 1.3 NW 9 15 5 8 1008.4 - 0.0
27/01:30am 28.1 32.9 26.3 90 1.3 NW 13 19 7 10 1008.5 - 0.0
27/01:00am 28.2 33.0 26.2 89 1.4 NW 13 17 7 9 1008.7 - 0.0
27/12:30am 28.2 32.8 26.0 88 1.6 NW 13 19 7 10 1008.9 - 0.0
27/12:19am 28.3 33.2 25.9 87 1.7 NNW 11 17 6 9 1009.0 - 0.0
27/12:00am 28.3 32.2 25.5 85 2.0 NNW 15 20 8 11 1009.2 - 0.0
 
Date/Time
WST
Temp
°C
App
Temp
°C
Dew
Point
°C
Rel
Hum
%
Delta-T
°C
Wind Press
QNH
hPa
Press
MSL
hPa
Rain since
9am
mm
Dir  Spd
km/h
Gust
km/h
Spd
kts
Gust
kts
26/11:30pm 28.3 32.7 25.7 86 1.8 NNW 13 19 7 10 1009.2 - 0.0
26/11:00pm 28.4 33.0 25.4 84 2.1 NNW 11 17 6 9 1009.5 - 0.0
26/10:30pm 28.4 32.1 25.2 83 2.3 NW 15 19 8 10 1009.5 - 0.0
26/10:00pm 28.5 31.3 25.3 83 2.3 NW 20 24 11 13 1009.3 - 0.0
26/09:30pm 28.6 32.2 25.0 81 2.5 NW 15 20 8 11 1009.1 - 0.0
26/09:00pm 28.7 31.7 24.7 79 2.8 NW 17 22 9 12 1009.0 - 0.0
26/08:30pm 28.7 31.5 24.3 77 3.1 NW 17 20 9 11 1008.4 - 0.0
26/08:00pm 28.8 31.7 24.4 77 3.1 NW 17 22 9 12 1007.9 - 0.0
26/07:30pm 28.9 31.5 24.0 75 3.4 NNW 17 24 9 13 1007.3 - 0.0
26/07:00pm 29.1 31.7 22.6 68 4.5 NW 13 22 7 12 1007.0 - 0.0
26/06:30pm 29.1 31.8 22.8 69 4.3 NNW 13 22 7 12 1006.7 - 0.0
26/06:00pm 29.4 30.7 21.6 63 5.3 NNW 17 22 9 12 1006.5 - 0.0
26/05:30pm 29.7 31.1 21.9 63 5.3 NNW 17 20 9 11 1006.0 - 0.0
26/05:00pm 30.2 32.1 21.3 59 6.0 NNW 13 20 7 11 1005.7 - 0.0
26/04:30pm 30.2 31.9 21.6 60 5.8 NNW 15 20 8 11 1005.6 - 0.0
26/04:00pm 30.6 30.5 19.6 51 7.3 NNW 19 24 10 13 1005.5 - 0.0
26/03:30pm 30.3 32.1 23.2 65 4.9 N 19 26 10 14 1005.5 - 0.0
26/03:00pm 29.7 31.9 23.9 71 4.0 N 19 24 10 13 1005.8 - 0.0
26/02:30pm 30.1 32.4 23.5 67 4.6 NNW 17 24 9 13 1006.0 - 0.0
26/02:00pm 30.0 32.9 23.9 70 4.3 N 15 22 8 12 1006.0 - 0.0
26/01:30pm 30.6 34.2 24.3 69 4.4 N 13 20 7 11 1006.4 - 0.0
26/01:00pm 30.5 34.1 24.4 70 4.3 NE 13 22 7 12 1006.6 - 0.0
26/12:30pm 29.9 32.7 24.3 72 3.9 NE 17 24 9 13 1007.0 - 0.0
26/12:00pm 30.0 32.7 24.2 71 4.1 NNE 17 24 9 13 1007.4 - 0.0
26/11:30am 30.3 32.4 23.7 68 4.6 NNE 19 24 10 13 1007.6 - 0.0
26/11:00am 31.4 34.0 22.7 60 6.0 ENE 13 19 7 10 1007.9 - 0.0
26/10:30am 30.4 32.6 21.8 60 5.8 NE 13 22 7 12 1008.3 - 0.0
26/10:00am 31.3 31.7 19.0 48 8.1 NE 15 22 8 12 1008.4 - 0.0
26/09:30am 30.9 32.6 20.2 53 7.1 NE 11 22 6 12 1008.5 - 0.0
26/09:00am 31.0 31.8 20.6 54 7.0 E 17 24 9 13 1008.5 - 0.0
26/08:30am 30.7 31.0 20.3 53 6.9 E 19 26 10 14 1008.6 - 0.0
26/08:00am 30.7 31.1 19.1 50 7.6 ESE 15 22 8 12 1008.5 - 0.0
26/07:30am 30.0 27.8 13.3 36 10.0 SE 17 20 9 11 1008.4 - 0.0
26/07:00am 30.0 26.6 10.5 30 11.2 SSE 19 22 10 12 1008.0 - 0.0
26/06:30am 29.0 27.0 11.6 34 10.1 S 13 17 7 9 1007.7 - 0.0
26/06:00am 28.4 27.0 14.6 43 8.4 S 15 19 8 10 1007.7 - 0.0
26/05:30am 29.2 26.8 9.9 30 10.9 SSE 13 17 7 9 1007.3 - 0.0
26/05:00am 28.6 28.2 14.1 41 8.8 S 9 15 5 8 1007.3 - 0.0
26/04:30am 28.8 28.3 16.0 45 8.0 S 13 17 7 9 1007.0 - 0.0
26/04:00am 28.5 30.2 20.2 60 5.5 S 11 13 6 7 1006.9 - 0.0
26/03:30am 28.1 30.7 21.9 69 4.2 SSW 11 13 6 7 1006.8 - 0.0
26/03:00am 27.8 31.7 24.2 81 2.5 SW 11 15 6 8 1006.7 - 0.0
26/02:30am 28.0 32.4 24.4 81 2.5 SW 9 13 5 7 1006.7 - 0.0
26/02:00am 28.5 31.9 24.1 77 3.1 WSW 13 17 7 9 1006.9 - 0.0
26/01:30am 28.5 31.2 23.4 74 3.5 WSW 15 19 8 10 1007.0 - 0.0
26/01:00am 28.4 31.5 23.5 75 3.4 WNW 13 17 7 9 1007.0 - 0.0
26/12:30am 28.3 32.7 24.5 80 2.7 NNW 9 15 5 8 1007.4 - 0.0
26/12:00am 28.4 32.4 24.4 79 2.8 NW 11 17 6 9 1007.8 - 0.0
 
Date/Time
WST
Temp
°C
App
Temp
°C
Dew
Point
°C
Rel
Hum
%
Delta-T
°C
Wind Press
QNH
hPa
Press
MSL
hPa
Rain since
9am
mm
Dir  Spd
km/h
Gust
km/h
Spd
kts
Gust
kts
25/11:30pm 28.8 32.9 23.9 75 3.4 N 9 13 5 7 1008.4 - 0.0
25/11:00pm 29.0 32.7 22.2 66 4.6 N 6 9 3 5 1008.6 - 0.0
25/10:30pm 29.5 32.2 22.2 65 5.0 W 11 19 6 10 1008.1 - 0.0
25/10:00pm 30.0 30.2 20.5 56 6.3 WSW 20 28 11 15 1008.0 - 0.0
25/09:30pm 30.0 30.2 20.5 56 6.3 WSW 20 28 11 15 1008.0 - 0.0
25/09:00pm 30.0 30.4 22.4 63 5.2 WSW 24 32 13 17 1008.0 - 0.0
25/08:30pm 30.8 30.6 19.8 52 7.3 WSW 20 26 11 14 1007.7 - 0.0
25/08:00pm 31.7 31.5 16.8 40 9.5 W 13 19 7 10 1007.6 - 0.0
25/07:30pm 31.8 31.9 16.5 39 9.7 W 11 17 6 9 1007.3 - 0.0
25/07:00pm 32.1 31.6 16.0 38 10.2 W 13 17 7 9 1006.8 - 0.0
25/06:30pm 31.9 31.8 18.8 45 8.6 W 17 20 9 11 1006.4 - 0.0
25/06:00pm 32.8 31.6 16.2 37 10.5 W 17 24 9 13 1006.0 - 0.0
25/05:30pm 33.4 32.3 15.4 34 11.3 WNW 15 20 8 11 1005.7 - 0.0
25/05:00pm 34.3 31.9 12.6 27 13.1 WNW 17 24 9 13 1005.5 - 0.0
25/04:30pm 34.1 32.7 15.5 32 11.7 W 17 24 9 13 1005.4 - 0.0
25/04:00pm 34.8 34.4 17.1 35 11.4 W 15 24 8 13 1005.3 - 0.0
25/03:30pm 34.1 33.4 18.6 40 10.2 W 20 26 11 14 1005.3 - 0.0
25/03:00pm 33.7 34.0 19.7 43 9.3 W 17 22 9 12 1005.4 - 0.0
25/02:30pm 33.2 32.5 18.6 42 9.6 WSW 20 24 11 13 1005.8 - 0.0
25/02:00pm 33.0 35.3 22.1 52 7.5 WNW 13 24 7 13 1006.2 - 0.0
25/01:30pm 32.1 35.3 24.9 65 5.1 NW 17 22 9 12 1006.4 - 0.0
25/01:00pm 32.4 34.2 22.5 56 6.8 NNW 17 24 9 13 1006.6 - 0.0
25/12:30pm 33.2 34.5 21.7 51 7.8 NNE 17 22 9 12 1006.9 - 0.0
25/12:00pm 32.7 35.1 22.2 54 7.2 NNE 13 20 7 11 1007.4 - 0.0
25/11:30am 31.7 35.3 24.3 65 5.2 NNE 13 19 7 10 1007.7 - 0.0
25/11:00am 32.2 36.8 25.3 67 4.9 NNE 11 19 6 10 1008.0 - 0.0
25/10:30am 32.4 36.7 23.6 59 6.1 NE 7 19 4 10 1008.2 - 0.0
25/10:00am 32.8 34.2 20.3 47 8.4 SE 13 22 7 12 1008.4 - 0.0

Other formats

Comma delimited format used in spreadsheet applications
http://www.bom.gov.au/fwo/IDW60801/IDW60801.99200.axf

JavaScript Object Notation format (JSON) in row-major order
http://www.bom.gov.au/fwo/IDW60801/IDW60801.99200.json

Data quality

Most of these data are generated automatically and are frequently updated. Quality checks on data are not normally performed. It is possible for incorrect values to appear. Refer to information at About Latest Weather Observations and please check the disclaimer before using these data.